createdAt,value
2023-02-02T00:01:24.204Z,3.35
2023-02-02T00:04:39.680Z,3.32
2023-02-02T00:07:59.674Z,3.35
2023-02-02T00:11:12.698Z,3.33
2023-02-02T00:14:25.692Z,3.31
2023-02-02T00:17:38.109Z,3.24
2023-02-02T00:20:50.199Z,3.08
2023-02-02T00:27:43.508Z,2.84
2023-02-02T00:30:56.064Z,2.71
2023-02-02T00:34:08.726Z,2.60
2023-02-02T00:37:21.529Z,2.48
2023-02-02T00:40:35.470Z,2.42
2023-02-02T00:43:50.131Z,2.33
2023-02-02T00:47:02.371Z,2.29
2023-02-02T00:50:22.095Z,2.26
2023-02-02T00:53:35.624Z,2.18
2023-02-02T00:56:49.104Z,2.07
2023-02-02T01:00:01.321Z,1.95
2023-02-02T01:03:14.189Z,1.79
2023-02-02T01:10:10.008Z,1.60
2023-02-02T01:13:22.263Z,1.52
2023-02-02T01:16:34.732Z,1.48
2023-02-02T01:19:47.084Z,1.47
2023-02-02T01:23:01.167Z,1.43
2023-02-02T01:26:17.523Z,1.42
2023-02-02T01:29:30.135Z,1.41
2023-02-02T01:32:42.189Z,1.36
2023-02-02T01:35:56.612Z,1.32
2023-02-02T01:39:09.506Z,1.34
2023-02-02T01:42:27.866Z,1.30
2023-02-02T01:45:40.274Z,1.33
2023-02-02T01:48:56.803Z,1.35
2023-02-02T01:52:10.267Z,1.38
2023-02-02T01:55:26.719Z,1.41
2023-02-02T01:58:43.745Z,1.41
2023-02-02T02:01:57.905Z,1.44
2023-02-02T02:05:13.025Z,1.46
2023-02-02T02:08:28.146Z,1.48
2023-02-02T02:11:42.171Z,1.50
2023-02-02T02:15:11.651Z,1.52
2023-02-02T02:18:32.943Z,1.53
2023-02-02T02:22:12.438Z,1.56
2023-02-02T02:26:08.677Z,1.52
2023-02-02T02:29:53.329Z,1.51
2023-02-02T02:33:10.279Z,1.48
2023-02-02T02:36:29.270Z,1.48
2023-02-02T02:39:46.697Z,1.48
2023-02-02T02:43:11.212Z,1.48
2023-02-02T02:46:25.404Z,1.52
2023-02-02T02:49:37.979Z,1.54
2023-02-02T02:52:53.445Z,1.54
2023-02-02T02:56:13.354Z,1.56
2023-02-02T02:59:34.188Z,1.56
2023-02-02T03:02:52.522Z,1.62
2023-02-02T03:06:13.001Z,1.57
2023-02-02T03:09:30.499Z,1.59
2023-02-02T03:12:52.609Z,1.56
2023-02-02T03:16:06.166Z,1.57
2023-02-02T03:19:20.149Z,1.58
2023-02-02T03:22:32.900Z,1.58
2023-02-02T03:25:46.725Z,1.64
2023-02-02T03:29:02.887Z,1.68
2023-02-02T03:32:15.608Z,1.73
2023-02-02T03:35:28.950Z,1.78
2023-02-02T03:38:41.396Z,1.81
2023-02-02T03:41:53.538Z,1.83
2023-02-02T03:45:14.663Z,1.86
2023-02-02T03:48:29.149Z,1.86
2023-02-02T03:51:43.168Z,1.88
2023-02-02T03:55:06.469Z,1.91
2023-02-02T03:58:27.044Z,1.91
2023-02-02T04:01:39.313Z,1.89
2023-02-02T04:04:52.100Z,1.91
2023-02-02T04:08:09.865Z,1.93
2023-02-02T04:11:25.418Z,1.92
2023-02-02T04:14:37.942Z,1.94
2023-02-02T04:17:52.806Z,1.94
2023-02-02T04:21:08.880Z,1.92
2023-02-02T04:24:22.348Z,1.95
2023-02-02T04:42:35.164Z,2.02
2023-02-02T04:49:58.013Z,2.03
2023-02-02T04:53:24.100Z,2.06
2023-02-02T04:56:36.595Z,2.07
2023-02-02T04:59:49.010Z,2.06
2023-02-02T05:03:01.332Z,2.08
2023-02-02T05:06:15.869Z,2.10
2023-02-02T05:09:28.364Z,2.12
2023-02-02T05:12:40.411Z,2.15
2023-02-02T05:15:52.472Z,2.16
2023-02-02T05:19:04.849Z,2.17
2023-02-02T05:22:17.009Z,2.23
2023-02-02T05:25:42.486Z,2.25
2023-02-02T05:28:55.145Z,2.28
2023-02-02T05:32:07.513Z,2.28
2023-02-02T05:35:19.937Z,2.28
2023-02-02T05:38:32.090Z,2.29
2023-02-02T05:41:44.476Z,2.28
2023-02-02T05:45:05.367Z,2.28
2023-02-02T06:44:49.351Z,2.99
2023-02-02T06:51:39.842Z,3.05
2023-02-02T06:57:52.191Z,3.06
2023-02-02T07:01:09.855Z,3.09
2023-02-02T07:04:22.631Z,3.13
2023-02-02T07:11:13.953Z,3.16
2023-02-02T07:13:53.372Z,3.18
2023-02-02T07:17:05.493Z,3.22
2023-02-02T07:20:18.924Z,3.18
2023-02-02T07:23:31.087Z,3.20
2023-02-02T07:26:43.729Z,3.16
2023-02-02T07:29:55.870Z,3.16
2023-02-02T07:33:07.883Z,3.10
2023-02-02T07:36:23.569Z,3.06
2023-02-02T07:39:35.594Z,3.00
2023-02-02T07:42:47.661Z,2.99
2023-02-02T07:46:08.248Z,2.99
2023-02-02T07:49:23.427Z,2.98
2023-02-02T07:52:36.589Z,2.97
2023-02-02T07:55:48.657Z,2.96
2023-02-02T07:59:02.397Z,2.84
2023-02-02T08:02:15.726Z,2.75
2023-02-02T08:05:28.049Z,2.57
2023-02-02T08:08:40.355Z,2.47
2023-02-02T08:11:52.697Z,2.41
2023-02-02T08:15:04.706Z,2.36
2023-02-02T08:18:17.116Z,2.31
2023-02-02T08:21:29.584Z,2.26
2023-02-02T08:24:43.034Z,2.22
2023-02-02T08:27:58.883Z,2.21
2023-02-02T08:31:15.442Z,2.12
2023-02-02T08:34:27.543Z,2.07
2023-02-02T08:37:39.607Z,2.01
2023-02-02T08:40:53.018Z,1.97
2023-02-02T08:44:05.004Z,1.95
2023-02-02T08:47:17.248Z,1.95
2023-02-02T08:50:29.440Z,2.02
2023-02-02T08:53:41.987Z,2.07
2023-02-02T08:56:54.125Z,2.11
2023-02-02T09:00:06.877Z,2.11
2023-02-02T09:03:19.203Z,2.12
2023-02-02T09:06:35.361Z,2.13
2023-02-02T09:09:47.534Z,2.12
2023-02-02T09:12:59.591Z,2.15
2023-02-02T09:16:15.196Z,2.20
2023-02-02T09:19:27.252Z,2.31
2023-02-02T09:22:39.439Z,2.32
2023-02-02T09:25:51.489Z,2.42
2023-02-02T09:29:05.774Z,2.50
2023-02-02T09:32:18.072Z,2.51
2023-02-02T09:35:30.318Z,2.58
2023-02-02T09:38:43.313Z,2.62
2023-02-02T09:42:31.970Z,2.66
2023-02-02T09:45:52.404Z,2.74
2023-02-02T09:49:09.789Z,2.74
2023-02-02T09:52:27.697Z,2.71
2023-02-02T09:55:43.620Z,2.62
2023-02-02T09:59:10.198Z,2.55
2023-02-02T10:02:21.423Z,2.48
2023-02-02T10:05:40.131Z,2.47
2023-02-02T10:08:56.941Z,2.41
2023-02-02T10:12:20.352Z,2.38
2023-02-02T10:15:38.395Z,2.31
2023-02-02T10:18:54.762Z,2.25
2023-02-02T10:22:14.043Z,2.23
2023-02-02T10:25:28.719Z,2.10
2023-02-02T10:28:58.781Z,2.04
2023-02-02T10:32:21.579Z,1.94
2023-02-02T10:35:45.907Z,1.88
2023-02-02T10:39:03.635Z,1.85
2023-02-02T10:42:23.159Z,1.86
2023-02-02T10:45:35.577Z,1.90
2023-02-02T10:48:52.915Z,2.01
2023-02-02T10:52:12.548Z,2.09
2023-02-02T10:55:33.103Z,2.19
2023-02-02T10:58:50.999Z,2.19
2023-02-02T11:02:18.989Z,2.20
2023-02-02T11:05:41.280Z,2.18
2023-02-02T11:08:56.961Z,2.28
2023-02-02T11:12:20.199Z,2.31
2023-02-02T11:15:35.666Z,2.40
2023-02-02T11:18:48.978Z,2.40
2023-02-02T11:22:05.910Z,2.44
2023-02-02T11:25:26.690Z,2.54
2023-02-02T11:28:41.834Z,2.51
2023-02-02T11:31:53.828Z,2.48
2023-02-02T11:35:29.678Z,2.43
2023-02-02T11:38:41.707Z,2.48
2023-02-02T11:41:53.839Z,2.50
2023-02-02T11:45:07.365Z,2.52
2023-02-02T11:48:25.634Z,2.57
2023-02-02T11:51:39.379Z,2.61
2023-02-02T11:54:56.259Z,2.68
2023-02-02T11:58:32.287Z,2.73
2023-02-02T12:01:45.327Z,2.83
2023-02-02T12:05:01.243Z,2.89
2023-02-02T12:08:14.781Z,2.92
2023-02-02T12:11:41.938Z,2.97
2023-02-02T12:14:59.289Z,3.06
2023-02-02T12:18:21.346Z,3.13
2023-02-02T12:21:42.860Z,3.17
2023-02-02T12:25:00.185Z,3.23
2023-02-02T12:28:21.869Z,3.21
2023-02-02T12:31:40.939Z,3.24
2023-02-02T12:35:04.701Z,3.25
2023-02-02T12:38:25.041Z,3.26
2023-02-02T12:41:50.804Z,3.27
2023-02-02T12:45:31.808Z,3.27
2023-02-02T12:48:58.363Z,3.25
2023-02-02T12:52:35.757Z,3.25
2023-02-02T12:55:54.622Z,3.26
2023-02-02T12:59:13.992Z,3.29
2023-02-02T13:02:32.444Z,3.31
2023-02-02T13:05:59.690Z,3.31
2023-02-02T13:09:19.904Z,3.33
2023-02-02T13:12:33.928Z,3.38
2023-02-02T13:15:51.343Z,3.40
2023-02-02T13:19:08.445Z,3.44
2023-02-02T13:22:22.232Z,3.46
2023-02-02T13:25:39.724Z,3.49
2023-02-02T13:28:57.235Z,3.52
2023-02-02T13:32:15.816Z,3.50
2023-02-02T13:35:31.695Z,3.53
2023-02-02T13:38:45.792Z,3.49
2023-02-02T13:42:00.173Z,3.53
2023-02-02T13:45:33.070Z,3.58
2023-02-02T13:48:55.196Z,3.60
2023-02-02T13:52:37.037Z,3.61
2023-02-02T13:56:30.328Z,3.62
2023-02-02T13:59:58.841Z,3.64
2023-02-02T14:03:25.767Z,3.61
2023-02-02T14:06:56.319Z,3.66
2023-02-02T14:10:09.212Z,3.63
2023-02-02T14:13:54.590Z,3.66
2023-02-02T14:17:09.501Z,3.69
2023-02-02T14:20:52.197Z,3.67
2023-02-02T14:24:05.131Z,3.66
2023-02-02T14:28:02.793Z,3.67
2023-02-02T14:31:58.723Z,3.67
2023-02-02T14:35:55.838Z,3.60
2023-02-02T14:39:26.872Z,3.60
2023-02-02T14:43:08.741Z,3.60
2023-02-02T14:46:51.105Z,3.65
2023-02-02T14:50:06.888Z,3.67
2023-02-02T14:53:30.172Z,3.66
2023-02-02T14:56:54.665Z,3.66
2023-02-02T15:00:08.860Z,3.69
2023-02-02T15:03:55.146Z,3.70
2023-02-02T15:07:39.607Z,3.69
2023-02-02T15:11:34.749Z,3.69
2023-02-02T15:14:52.155Z,3.69
2023-02-02T15:18:17.581Z,3.67
2023-02-02T15:21:35.535Z,3.68
2023-02-02T15:24:54.400Z,3.65
2023-02-02T15:28:15.536Z,3.63
2023-02-02T15:31:34.504Z,3.61
2023-02-02T15:34:53.238Z,3.61
2023-02-02T15:38:10.275Z,3.61
2023-02-02T15:41:32.569Z,3.61
2023-02-02T15:44:46.549Z,3.59
2023-02-02T15:48:05.004Z,3.58
2023-02-02T15:51:24.929Z,3.59
2023-02-02T15:54:42.200Z,3.56
2023-02-02T15:57:56.366Z,3.51
2023-02-02T16:01:20.578Z,3.51
2023-02-02T16:04:41.867Z,3.53
2023-02-02T16:08:05.572Z,3.52
2023-02-02T16:11:21.435Z,3.54
2023-02-02T16:14:36.376Z,3.51
2023-02-02T16:17:48.728Z,3.48
2023-02-02T16:21:03.939Z,3.45
2023-02-02T16:24:21.888Z,3.45
2023-02-02T16:27:35.892Z,3.38
2023-02-02T16:30:52.917Z,3.44
2023-02-02T16:34:05.441Z,3.41
2023-02-02T16:37:27.439Z,3.38
2023-02-02T16:40:43.250Z,3.37
2023-02-02T16:43:58.226Z,3.37
2023-02-02T16:47:19.505Z,3.37
2023-02-02T16:50:57.737Z,3.37
2023-02-02T16:54:26.803Z,3.37
2023-02-02T16:57:43.471Z,3.34
2023-02-02T17:01:16.805Z,3.32
2023-02-02T17:04:32.431Z,3.31
2023-02-02T17:08:04.648Z,3.29
2023-02-02T17:11:34.317Z,3.18
2023-02-02T17:15:19.679Z,3.09
2023-02-02T17:18:32.807Z,3.02
2023-02-02T17:21:48.556Z,2.99
2023-02-02T17:25:00.914Z,2.95
2023-02-02T17:28:17.164Z,2.89
2023-02-02T17:31:29.617Z,2.86
2023-02-02T17:34:41.918Z,2.91
2023-02-02T17:37:54.283Z,2.87
2023-02-02T17:41:08.711Z,2.91
2023-02-02T17:44:20.983Z,2.88
2023-02-02T17:47:33.273Z,2.90
2023-02-02T17:54:27.064Z,2.92
2023-02-02T17:57:39.230Z,2.93
2023-02-02T18:00:53.499Z,2.90
2023-02-02T18:04:06.792Z,2.90
2023-02-02T18:07:19.043Z,2.90
2023-02-02T18:10:31.520Z,2.89
2023-02-02T18:25:25.528Z,2.87
2023-02-02T18:28:38.002Z,2.85
2023-02-02T18:31:50.310Z,2.86
2023-02-02T18:35:02.640Z,2.86
2023-02-02T18:38:14.997Z,2.85
2023-02-02T18:45:38.324Z,2.77
2023-02-02T18:48:51.003Z,2.74
2023-02-02T18:52:03.717Z,2.73
2023-02-02T18:55:19.953Z,2.71
2023-02-02T18:58:32.342Z,2.73
2023-02-02T19:01:44.775Z,2.76
2023-02-02T19:05:12.272Z,2.76
2023-02-02T19:08:24.844Z,2.71
2023-02-02T19:11:43.057Z,2.68
2023-02-02T19:14:56.043Z,2.67
2023-02-02T19:18:11.882Z,2.64
2023-02-02T19:21:24.390Z,2.63
2023-02-02T19:24:43.055Z,2.61
2023-02-02T19:27:55.434Z,2.60
2023-02-02T19:31:13.170Z,2.57
2023-02-02T19:34:28.680Z,2.51
2023-02-02T19:37:46.317Z,2.53
2023-02-02T19:40:58.321Z,2.48
2023-02-02T19:44:19.018Z,2.46
2023-02-02T19:47:36.570Z,2.40
2023-02-02T19:50:50.623Z,2.39
2023-02-02T19:54:06.615Z,2.35
2023-02-02T19:57:28.007Z,2.31
2023-02-02T20:00:45.089Z,2.24
2023-02-02T20:03:58.155Z,2.23
2023-02-02T20:07:18.557Z,2.24
2023-02-02T20:10:33.256Z,2.22
2023-02-02T20:13:49.830Z,2.25
2023-02-02T20:20:44.390Z,2.27
2023-02-02T20:23:56.626Z,2.22
2023-02-02T20:27:18.521Z,2.18
2023-02-02T20:30:34.769Z,1.93
2023-02-02T20:33:52.993Z,1.73
2023-02-02T20:37:16.728Z,1.69
2023-02-02T20:40:35.554Z,1.57
2023-02-02T20:43:48.192Z,1.51
2023-02-02T20:47:02.626Z,1.52
